createdAt,value
2017-02-02T00:01:12.526Z,955.01
2017-02-02T00:03:24.702Z,955.02
2017-02-02T00:05:36.930Z,954.96
2017-02-02T00:07:49.264Z,954.92
2017-02-02T00:10:01.443Z,954.96
2017-02-02T00:12:13.665Z,955.01
2017-02-02T00:14:26.677Z,955.1
2017-02-02T00:16:38.925Z,955.17
2017-02-02T00:18:51.264Z,955.11
2017-02-02T00:21:01.976Z,954.96
2017-02-02T00:23:14.131Z,954.99
2017-02-02T00:25:26.459Z,955.08
2017-02-02T00:27:38.737Z,954.99
2017-02-02T00:29:51.019Z,954.93
2017-02-02T00:32:03.320Z,954.94
2017-02-02T00:34:15.552Z,954.95
2017-02-02T00:36:27.729Z,954.88
2017-02-02T00:38:39.831Z,954.86
2017-02-02T00:40:52.136Z,954.89
2017-02-02T00:43:04.360Z,954.92
2017-02-02T00:45:16.486Z,954.94
2017-02-02T00:47:28.879Z,954.92
2017-02-02T00:49:41.310Z,954.89
2017-02-02T00:51:53.707Z,954.85
2017-02-02T00:54:05.997Z,954.84
2017-02-02T00:56:13.329Z,954.83
2017-02-02T00:58:25.762Z,954.9
2017-02-02T01:00:37.931Z,954.83
2017-02-02T01:02:50.244Z,954.84
2017-02-02T01:05:02.501Z,954.85
2017-02-02T01:07:09.852Z,954.86
2017-02-02T01:09:22.209Z,954.89
2017-02-02T01:11:34.613Z,954.88
2017-02-02T01:13:46.808Z,954.9
2017-02-02T01:15:59.159Z,954.95
2017-02-02T01:18:11.311Z,954.95
2017-02-02T01:20:24.372Z,954.98
2017-02-02T01:22:36.932Z,954.93
2017-02-02T01:24:49.517Z,954.94
2017-02-02T01:27:01.864Z,954.98
2017-02-02T01:29:14.179Z,954.98
2017-02-02T01:31:26.431Z,955
2017-02-02T01:33:38.707Z,954.98
2017-02-02T01:35:51.074Z,954.98
2017-02-02T01:38:03.356Z,954.96
2017-02-02T01:40:15.584Z,954.96
2017-02-02T01:42:27.771Z,954.98
2017-02-02T01:44:40.025Z,954.96
2017-02-02T01:46:52.258Z,954.88
2017-02-02T01:49:04.578Z,954.91
2017-02-02T01:51:15.071Z,954.92
2017-02-02T01:53:27.309Z,954.82
2017-02-02T01:55:39.938Z,954.83
2017-02-02T01:57:52.429Z,954.8
2017-02-02T02:00:04.775Z,954.83
2017-02-02T02:02:17.023Z,954.85
2017-02-02T02:04:29.222Z,954.82
2017-02-02T02:06:41.534Z,954.8
2017-02-02T02:08:53.706Z,954.83
2017-02-02T02:11:05.906Z,954.82
2017-02-02T02:13:18.116Z,954.74
2017-02-02T02:15:25.500Z,954.7
2017-02-02T02:17:37.735Z,954.66
2017-02-02T02:19:49.893Z,954.68
2017-02-02T02:22:02.220Z,954.68
2017-02-02T02:24:14.529Z,954.7
2017-02-02T02:26:26.822Z,954.7
2017-02-02T02:28:39.055Z,954.64
2017-02-02T02:30:52.261Z,954.6
2017-02-02T02:33:04.690Z,954.58
2017-02-02T02:35:16.829Z,954.53
2017-02-02T02:37:29.207Z,954.5
2017-02-02T02:39:41.361Z,954.54
2017-02-02T02:41:53.604Z,954.56
2017-02-02T02:44:05.863Z,954.58
2017-02-02T02:46:18.167Z,954.59
2017-02-02T02:48:30.603Z,954.6
2017-02-02T02:50:42.917Z,954.63
2017-02-02T02:52:55.260Z,954.66
2017-02-02T02:55:05.805Z,954.7
2017-02-02T02:57:17.945Z,954.65
2017-02-02T02:59:30.248Z,954.61
2017-02-02T03:01:42.510Z,954.58
2017-02-02T03:03:55.059Z,954.53
2017-02-02T03:06:08.125Z,954.53
2017-02-02T03:08:20.354Z,954.57
2017-02-02T03:10:32.591Z,954.57
2017-02-02T03:12:44.859Z,954.64
2017-02-02T03:14:57.053Z,954.66
2017-02-02T03:17:04.300Z,954.73
2017-02-02T03:19:11.684Z,954.71
2017-02-02T03:21:24.236Z,954.74
2017-02-02T03:23:36.398Z,954.75
2017-02-02T03:25:48.629Z,954.76
2017-02-02T03:27:59.101Z,954.71
2017-02-02T03:30:11.279Z,954.68
2017-02-02T03:32:23.382Z,954.61
2017-02-02T03:34:35.690Z,954.59
2017-02-02T03:36:48.460Z,954.64
2017-02-02T03:39:01.305Z,954.62
2017-02-02T03:41:13.929Z,954.56
2017-02-02T03:43:26.264Z,954.46
2017-02-02T03:45:38.408Z,954.45
2017-02-02T03:47:50.685Z,954.46
2017-02-02T03:49:57.868Z,954.44
2017-02-02T03:52:10.058Z,954.42
2017-02-02T03:54:22.288Z,954.44
2017-02-02T03:56:34.576Z,954.5
2017-02-02T03:58:47.116Z,954.57
2017-02-02T04:00:59.390Z,954.56
2017-02-02T04:03:11.534Z,954.54
2017-02-02T04:05:23.767Z,954.43
2017-02-02T04:07:31.112Z,954.44
2017-02-02T04:09:43.511Z,954.46
2017-02-02T04:11:55.675Z,954.52
2017-02-02T04:14:08.184Z,954.53
2017-02-02T04:16:20.742Z,954.49
2017-02-02T04:18:32.889Z,954.5
2017-02-02T04:20:45.224Z,954.46
2017-02-02T04:22:57.408Z,954.44
2017-02-02T04:25:04.568Z,954.38
2017-02-02T04:27:17.209Z,954.39
2017-02-02T04:29:29.560Z,954.35
2017-02-02T04:31:41.885Z,954.3
2017-02-02T04:33:54.246Z,954.24
2017-02-02T04:36:06.717Z,954.25
2017-02-02T04:38:18.946Z,954.23
2017-02-02T04:40:31.352Z,954.16
2017-02-02T04:42:43.729Z,954.13
2017-02-02T04:44:55.879Z,954.17
2017-02-02T04:47:08.009Z,954.22
2017-02-02T04:49:20.603Z,954.24
2017-02-02T04:51:33.126Z,954.21
2017-02-02T04:53:43.771Z,954.18
2017-02-02T04:55:55.924Z,954.17
2017-02-02T04:58:08.115Z,954.14
2017-02-02T05:00:20.656Z,954.12
2017-02-02T05:02:32.930Z,954.13
2017-02-02T05:04:45.435Z,954.08
2017-02-02T05:06:57.610Z,954.1
2017-02-02T05:09:09.833Z,954.13
2017-02-02T05:11:22.012Z,954.18
2017-02-02T05:13:34.402Z,954.22
2017-02-02T05:15:46.716Z,954.19
2017-02-02T05:17:59.031Z,954.14
2017-02-02T05:20:11.420Z,954.16
2017-02-02T05:22:23.878Z,954.21
2017-02-02T05:24:36.335Z,954.22
2017-02-02T05:26:48.643Z,954.28
2017-02-02T05:29:00.893Z,954.24
2017-02-02T05:31:13.077Z,954.2
2017-02-02T05:33:25.475Z,954.19
2017-02-02T05:35:37.734Z,954.14
2017-02-02T05:37:49.914Z,954.15
2017-02-02T05:40:02.087Z,954.16
2017-02-02T05:42:14.268Z,954.07
2017-02-02T05:44:26.674Z,954.02
2017-02-02T05:46:38.890Z,953.99
2017-02-02T05:48:51.219Z,953.99
2017-02-02T05:51:03.316Z,953.98
2017-02-02T05:53:15.553Z,953.99
2017-02-02T05:55:27.798Z,954
2017-02-02T05:57:40.248Z,954.08
2017-02-02T05:59:52.527Z,954.14
2017-02-02T06:01:59.683Z,954.14
2017-02-02T06:04:10.330Z,954.12
2017-02-02T06:06:22.891Z,954.1
2017-02-02T06:08:35.112Z,954.14
2017-02-02T06:10:47.307Z,954.16
2017-02-02T06:12:59.470Z,954.17
2017-02-02T06:15:11.581Z,954.12
2017-02-02T06:17:23.879Z,954.14
2017-02-02T06:19:36.159Z,954.16
2017-02-02T06:21:48.290Z,954.14
2017-02-02T06:24:00.562Z,954.17
2017-02-02T06:26:12.821Z,954.13
2017-02-02T06:28:25.057Z,954.09
2017-02-02T06:30:37.441Z,954.14
2017-02-02T06:32:50.081Z,954.13
2017-02-02T06:35:02.383Z,954.2
2017-02-02T06:37:14.567Z,954.23
2017-02-02T06:39:26.815Z,954.21
2017-02-02T06:41:39.089Z,954.3
2017-02-02T06:43:51.823Z,954.25
2017-02-02T06:46:04.043Z,954.31
2017-02-02T06:48:16.569Z,954.25
2017-02-02T06:50:28.803Z,954.26
2017-02-02T06:52:40.934Z,954.23
2017-02-02T06:54:53.307Z,954.21
2017-02-02T06:57:05.579Z,954.26
2017-02-02T06:59:17.853Z,954.21
2017-02-02T07:01:30.902Z,954.19
2017-02-02T07:03:43.048Z,954.14
2017-02-02T07:05:50.534Z,954.14
2017-02-02T07:08:03.250Z,954.13
2017-02-02T07:10:15.752Z,954.12
2017-02-02T07:12:28.144Z,954.13
2017-02-02T07:14:38.773Z,954.11
2017-02-02T07:16:49.717Z,954.13
2017-02-02T07:18:57.123Z,954.12
2017-02-02T07:21:09.450Z,954.09
2017-02-02T07:23:21.755Z,954.12
2017-02-02T07:25:34.008Z,954.13
2017-02-02T07:27:46.391Z,954.13
2017-02-02T07:29:58.495Z,954.15
2017-02-02T07:32:10.748Z,954.14
2017-02-02T07:34:23.075Z,954.11
2017-02-02T07:36:37.043Z,954.07
2017-02-02T07:38:49.281Z,954.1
2017-02-02T07:41:01.753Z,954.02
2017-02-02T07:43:15.459Z,954.04
2017-02-02T07:45:28.264Z,954.03
2017-02-02T07:47:40.451Z,954
2017-02-02T07:49:52.929Z,954.02
2017-02-02T07:52:05.152Z,954.05
2017-02-02T07:54:17.634Z,954.08
2017-02-02T07:56:30.053Z,954.1
2017-02-02T07:58:42.417Z,954.1
2017-02-02T08:00:54.786Z,954.08
2017-02-02T08:03:07.114Z,954.1
2017-02-02T08:05:19.623Z,954.07
2017-02-02T08:07:31.410Z,954.03
2017-02-02T08:09:44.315Z,954.05
2017-02-02T08:11:56.480Z,954.09
2017-02-02T08:14:09.638Z,954.07
2017-02-02T08:16:23.165Z,954.01
2017-02-02T08:18:36.619Z,954.05
2017-02-02T08:20:49.065Z,953.99
2017-02-02T08:23:01.680Z,954.01
2017-02-02T08:25:21.271Z,953.96
2017-02-02T08:27:33.462Z,953.98
2017-02-02T08:29:45.851Z,954
2017-02-02T08:31:58.198Z,954
2017-02-02T08:34:10.545Z,953.98
2017-02-02T08:36:22.856Z,953.96
2017-02-02T08:38:35.075Z,953.92
2017-02-02T08:40:47.288Z,953.87
2017-02-02T08:42:59.477Z,953.85
2017-02-02T08:45:11.816Z,953.83
2017-02-02T08:47:24.026Z,953.8
2017-02-02T08:49:34.551Z,953.74
2017-02-02T08:51:46.759Z,953.73
2017-02-02T08:53:59.784Z,953.78
2017-02-02T08:56:12.080Z,953.76
2017-02-02T08:58:24.371Z,953.7
2017-02-02T09:00:36.521Z,953.63
2017-02-02T09:02:48.701Z,953.6
2017-02-02T09:05:01.023Z,953.58
2017-02-02T09:07:13.265Z,953.59
2017-02-02T09:09:25.492Z,953.56
2017-02-02T09:11:37.680Z,953.54
2017-02-02T09:13:49.977Z,953.54
2017-02-02T09:16:02.245Z,953.51
2017-02-02T09:18:14.468Z,953.51
2017-02-02T09:20:21.761Z,953.54
2017-02-02T09:22:33.994Z,953.5
2017-02-02T09:24:41.566Z,953.45
2017-02-02T09:26:53.826Z,953.34
2017-02-02T09:29:06.016Z,953.35
2017-02-02T09:31:18.491Z,953.34
2017-02-02T09:33:31.545Z,953.33
2017-02-02T09:35:44.340Z,953.32
2017-02-02T09:37:56.633Z,953.32
2017-02-02T09:40:10.281Z,953.31
2017-02-02T09:42:24.637Z,953.31
2017-02-02T09:44:41.828Z,953.28
2017-02-02T09:47:02.269Z,953.26
2017-02-02T09:49:22.703Z,953.23
2017-02-02T09:51:35.332Z,953.24
2017-02-02T09:53:47.613Z,953.19
2017-02-02T09:55:59.876Z,953.18
2017-02-02T09:58:12.103Z,953.16
2017-02-02T10:00:24.304Z,953.06
2017-02-02T10:02:36.715Z,952.99
2017-02-02T10:04:49.413Z,952.98
2017-02-02T10:07:00.334Z,952.89
2017-02-02T10:09:07.651Z,952.96
2017-02-02T10:11:20.124Z,952.88
2017-02-02T10:15:43.089Z,952.86
2017-02-02T10:17:55.364Z,952.93
2017-02-02T10:20:07.545Z,952.84
2017-02-02T10:22:19.918Z,952.74
2017-02-02T10:24:27.148Z,952.73
2017-02-02T10:26:39.368Z,952.72
2017-02-02T10:28:46.698Z,952.71
2017-02-02T10:30:58.976Z,952.71
2017-02-02T10:33:06.160Z,952.66
2017-02-02T10:35:18.312Z,952.75
2017-02-02T10:37:25.657Z,952.71
2017-02-02T10:39:38.434Z,952.65
2017-02-02T10:41:45.960Z,952.58
2017-02-02T10:43:58.182Z,952.51
2017-02-02T10:46:10.784Z,952.49
2017-02-02T10:48:23.192Z,952.41
2017-02-02T10:50:35.574Z,952.31
2017-02-02T10:52:47.709Z,952.3
2017-02-02T10:55:00.054Z,952.3
2017-02-02T10:57:12.495Z,952.28
2017-02-02T10:59:24.664Z,952.19
2017-02-02T11:01:40.738Z,952.19
2017-02-02T11:03:52.939Z,952.18
2017-02-02T11:06:05.268Z,952.15
2017-02-02T11:08:17.625Z,952.05
2017-02-02T11:10:29.796Z,951.97
2017-02-02T11:12:37.067Z,951.93
2017-02-02T11:14:49.334Z,951.95
2017-02-02T11:17:02.018Z,951.81
2017-02-02T11:19:14.212Z,951.69
2017-02-02T11:21:26.393Z,951.61
2017-02-02T11:23:38.671Z,951.49
2017-02-02T11:25:51.024Z,951.46
2017-02-02T11:28:03.342Z,951.39
2017-02-02T11:30:15.615Z,951.3
2017-02-02T11:32:27.955Z,951.28
2017-02-02T11:34:40.204Z,951.25
2017-02-02T11:36:52.600Z,951.26
2017-02-02T11:39:04.766Z,951.25
2017-02-02T11:41:15.350Z,951.18
2017-02-02T11:43:27.483Z,951.14
2017-02-02T11:45:41.008Z,951.12
2017-02-02T11:47:53.238Z,951.05
2017-02-02T11:50:05.691Z,951.04
2017-02-02T11:52:17.851Z,951.04
2017-02-02T11:54:30.168Z,950.98
2017-02-02T11:56:42.569Z,950.92
2017-02-02T11:58:54.770Z,950.9
2017-02-02T12:01:02.003Z,950.84
2017-02-02T12:03:14.837Z,950.8
2017-02-02T12:05:22.086Z,950.81
2017-02-02T12:07:34.489Z,950.84
2017-02-02T12:09:41.789Z,950.79
2017-02-02T12:11:49.022Z,950.76
2017-02-02T12:14:01.369Z,950.67
2017-02-02T12:16:13.518Z,950.61
2017-02-02T12:18:25.917Z,950.61
2017-02-02T12:20:38.239Z,950.53
2017-02-02T12:22:52.173Z,950.52
2017-02-02T12:25:05.021Z,950.48
2017-02-02T12:27:16.068Z,950.42
2017-02-02T12:29:29.509Z,950.45
2017-02-02T12:31:36.910Z,950.41
2017-02-02T12:33:44.090Z,950.35
2017-02-02T12:35:56.209Z,950.31
2017-02-02T12:38:08.509Z,950.3
2017-02-02T12:40:20.715Z,950.29
2017-02-02T12:42:33.008Z,950.29
2017-02-02T12:44:45.340Z,950.31
2017-02-02T12:46:57.638Z,950.32
2017-02-02T12:49:10.216Z,950.29
2017-02-02T12:51:22.415Z,950.33
2017-02-02T12:53:34.763Z,950.32
2017-02-02T12:55:47.035Z,950.27
2017-02-02T12:57:59.311Z,950.34
2017-02-02T13:00:11.796Z,950.19
2017-02-02T13:02:19.306Z,950.19
2017-02-02T13:04:31.630Z,950.18
2017-02-02T13:06:43.786Z,950.12
2017-02-02T13:08:56.026Z,950.09
2017-02-02T13:11:08.230Z,950.12
2017-02-02T13:13:20.549Z,950.09
2017-02-02T13:15:32.849Z,950.1
2017-02-02T13:17:45.160Z,950.06
2017-02-02T13:19:57.575Z,950.06
2017-02-02T13:22:09.855Z,950.04
2017-02-02T13:24:22.075Z,950.04
2017-02-02T13:26:34.324Z,950.01
2017-02-02T13:28:46.492Z,950.07
2017-02-02T13:30:58.753Z,950.07
2017-02-02T13:33:05.939Z,950.07
2017-02-02T13:35:18.145Z,950.06
2017-02-02T13:37:30.483Z,950
2017-02-02T13:39:42.835Z,950.05
2017-02-02T13:41:50.195Z,949.99
2017-02-02T13:44:02.565Z,950.01
2017-02-02T13:46:15.076Z,950.01
2017-02-02T13:48:27.219Z,950.02
2017-02-02T13:50:39.536Z,950.02
2017-02-02T13:52:51.792Z,950
2017-02-02T13:55:04.462Z,950.03
2017-02-02T13:57:16.819Z,950
2017-02-02T13:59:19.067Z,949.94
2017-02-02T14:01:31.296Z,949.97
2017-02-02T14:03:43.602Z,949.98
2017-02-02T14:05:56.018Z,950.01
2017-02-02T14:08:08.332Z,949.99
2017-02-02T14:10:20.568Z,949.97
2017-02-02T14:12:32.895Z,949.96
2017-02-02T14:14:47.682Z,949.97
2017-02-02T14:16:59.950Z,949.97
2017-02-02T14:19:12.584Z,950.01
2017-02-02T14:21:24.964Z,950.03
2017-02-02T14:23:37.340Z,950.06
2017-02-02T14:25:49.636Z,950.03
2017-02-02T14:28:29.053Z,950
2017-02-02T14:31:08.812Z,949.97
2017-02-02T14:33:20.967Z,950
2017-02-02T14:35:33.409Z,949.96
2017-02-02T14:37:45.654Z,949.97
2017-02-02T14:39:52.974Z,949.93
2017-02-02T14:42:05.326Z,949.97
2017-02-02T14:44:17.682Z,949.93
2017-02-02T14:46:30.384Z,949.88
2017-02-02T14:48:42.839Z,949.9
2017-02-02T14:50:55.078Z,949.88
2017-02-02T14:53:07.352Z,949.96
2017-02-02T14:55:19.603Z,949.9
2017-02-02T14:57:32.291Z,949.86
2017-02-02T14:59:44.582Z,949.83
2017-02-02T15:01:56.837Z,949.83
2017-02-02T15:04:04.245Z,949.85
2017-02-02T15:06:16.373Z,949.85
2017-02-02T15:08:28.865Z,949.93
2017-02-02T15:10:41.090Z,949.83
2017-02-02T15:12:53.265Z,949.8
2017-02-02T15:15:01.343Z,949.86
2017-02-02T15:17:13.576Z,949.81
2017-02-02T15:19:26.046Z,949.77
2017-02-02T15:21:38.796Z,949.79
2017-02-02T15:23:51.239Z,949.76
2017-02-02T15:26:03.943Z,949.76
2017-02-02T15:28:16.371Z,949.72
2017-02-02T15:30:23.599Z,949.71
2017-02-02T15:32:35.859Z,949.74
2017-02-02T15:34:48.094Z,949.74
2017-02-02T15:36:55.670Z,949.73
2017-02-02T15:39:03.874Z,949.8
2017-02-02T15:41:16.451Z,949.78
2017-02-02T15:43:28.694Z,949.74
2017-02-02T15:45:36.606Z,949.79
2017-02-02T15:47:49.157Z,949.81
2017-02-02T15:50:01.471Z,949.84
2017-02-02T15:52:08.722Z,949.78
2017-02-02T15:54:19.360Z,949.77
2017-02-02T15:56:32.177Z,949.82
2017-02-02T15:58:44.489Z,949.77
2017-02-02T16:00:56.846Z,949.79
2017-02-02T16:03:09.527Z,949.78
2017-02-02T16:05:21.766Z,949.75
2017-02-02T16:07:33.972Z,949.78
2017-02-02T16:09:46.387Z,949.77
2017-02-02T16:11:58.790Z,949.82
2017-02-02T16:14:11.052Z,949.81
2017-02-02T16:16:23.343Z,949.72
2017-02-02T16:18:35.804Z,949.68
2017-02-02T16:20:43.073Z,949.7
2017-02-02T16:22:46.101Z,949.67
2017-02-02T16:25:01.700Z,949.72
2017-02-02T16:27:13.907Z,949.7
2017-02-02T16:29:26.469Z,949.71
2017-02-02T16:31:40.943Z,949.76
2017-02-02T16:33:53.245Z,949.74
2017-02-02T16:36:09.558Z,949.75
2017-02-02T16:38:21.803Z,949.74
2017-02-02T16:40:39.218Z,949.77
2017-02-02T16:42:54.030Z,949.72
2017-02-02T16:45:14.233Z,949.69
2017-02-02T16:47:42.250Z,949.73
2017-02-02T16:50:14.451Z,949.75
2017-02-02T16:52:44.055Z,949.73
2017-02-02T16:55:17.823Z,949.76
2017-02-02T16:57:48.961Z,949.78
2017-02-02T17:00:13.165Z,949.75
2017-02-02T17:02:30.131Z,949.78
2017-02-02T17:04:57.187Z,949.81
2017-02-02T17:07:17.007Z,949.8
2017-02-02T17:09:48.780Z,949.69
2017-02-02T17:12:14.090Z,949.68
2017-02-02T17:14:49.017Z,949.7
2017-02-02T17:19:51.353Z,949.71
2017-02-02T17:22:26.545Z,949.71
2017-02-02T17:25:05.312Z,949.68
2017-02-02T17:27:51.569Z,949.66
2017-02-02T17:30:33.888Z,949.68
2017-02-02T17:33:20.725Z,949.69
2017-02-02T17:36:04.823Z,949.67
2017-02-02T17:38:51.038Z,949.64
2017-02-02T17:41:37.054Z,949.67
2017-02-02T17:44:28.382Z,949.65
2017-02-02T17:47:14.869Z,949.68
2017-02-02T17:49:55.653Z,949.7
2017-02-02T17:52:37.107Z,949.71
2017-02-02T17:55:13.469Z,949.69
2017-02-02T17:57:48.888Z,949.67
2017-02-02T18:00:23.696Z,949.7
2017-02-02T18:03:08.151Z,949.65
2017-02-02T18:05:40.809Z,949.65
2017-02-02T18:08:22.976Z,949.65
2017-02-02T18:11:07.269Z,949.67
2017-02-02T18:13:54.003Z,949.65
2017-02-02T18:16:31.794Z,949.65
2017-02-02T18:19:06.056Z,949.67
2017-02-02T18:21:38.655Z,949.7
2017-02-02T18:24:11.422Z,949.65
2017-02-02T18:26:51.177Z,949.68
2017-02-02T18:29:31.340Z,949.66
2017-02-02T18:31:51.639Z,949.66
2017-02-02T18:36:38.315Z,949.66
2017-02-02T18:39:33.326Z,949.62
2017-02-02T18:42:32.257Z,949.62
2017-02-02T18:45:30.332Z,949.6
2017-02-02T18:48:36.016Z,949.65
2017-02-02T18:51:36.742Z,949.59
2017-02-02T18:57:55.424Z,949.6
2017-02-02T19:01:03.063Z,949.6
2017-02-02T19:04:07.108Z,949.59
2017-02-02T19:06:29.314Z,949.61
2017-02-02T19:08:55.624Z,949.55
2017-02-02T19:11:48.282Z,949.5
2017-02-02T19:14:14.492Z,949.53
2017-02-02T19:16:30.622Z,949.56
2017-02-02T19:19:20.981Z,949.56
2017-02-02T19:22:09.922Z,949.46
2017-02-02T19:25:00.084Z,949.44
2017-02-02T19:27:55.352Z,949.42
2017-02-02T19:30:54.377Z,949.42
2017-02-02T19:33:53.285Z,949.42
2017-02-02T19:36:52.892Z,949.39
2017-02-02T19:39:49.513Z,949.34
2017-02-02T19:42:48.564Z,949.37
2017-02-02T19:45:44.296Z,949.37
2017-02-02T19:48:14.782Z,949.33
2017-02-02T19:50:27.787Z,949.39
2017-02-02T19:52:39.706Z,949.33
2017-02-02T19:54:53.378Z,949.33
2017-02-02T19:57:09.030Z,949.27
2017-02-02T19:59:23.731Z,949.33
2017-02-02T20:01:41.322Z,949.31
2017-02-02T20:03:57.950Z,949.34
2017-02-02T20:06:10.306Z,949.31
2017-02-02T20:08:21.032Z,949.28
2017-02-02T20:10:33.488Z,949.26
2017-02-02T20:12:52.460Z,949.3
2017-02-02T20:17:32.910Z,949.23
2017-02-02T20:19:45.380Z,949.26
2017-02-02T20:21:57.705Z,949.23
2017-02-02T20:24:10.202Z,949.2
2017-02-02T20:26:22.572Z,949.21
2017-02-02T20:28:34.876Z,949.24
2017-02-02T20:30:37.360Z,949.24
2017-02-02T20:32:48.136Z,949.22
2017-02-02T20:35:00.511Z,949.2
2017-02-02T20:37:12.967Z,949.24
2017-02-02T20:39:20.519Z,949.18
2017-02-02T20:41:32.744Z,949.21
2017-02-02T20:43:45.155Z,949.13
2017-02-02T20:45:59.509Z,949.18
2017-02-02T20:48:12.010Z,949.15
2017-02-02T20:50:24.316Z,949.11
2017-02-02T20:52:36.619Z,949.08
2017-02-02T20:54:48.833Z,949.16
2017-02-02T20:57:01.053Z,949.12
2017-02-02T20:59:13.640Z,949.15
2017-02-02T21:01:24.095Z,949.11
2017-02-02T21:03:36.475Z,949.1
2017-02-02T21:05:49.051Z,949.15
2017-02-02T21:07:57.123Z,949.18
2017-02-02T21:10:09.997Z,949.17
2017-02-02T21:12:22.953Z,949.19
2017-02-02T21:14:35.797Z,949.12
2017-02-02T21:16:44.972Z,949.09
2017-02-02T21:18:54.079Z,949.11
2017-02-02T21:21:06.718Z,949.06
2017-02-02T21:23:19.412Z,949.1
2017-02-02T21:25:32.885Z,949.07
2017-02-02T21:27:45.551Z,949.07
2017-02-02T21:29:53.002Z,949.19
2017-02-02T21:32:05.517Z,949.19
2017-02-02T21:34:27.588Z,949.24
2017-02-02T21:37:01.382Z,949.19
2017-02-02T21:39:34.990Z,949.2
2017-02-02T21:42:18.704Z,949.16
2017-02-02T21:45:00.154Z,949.1
2017-02-02T21:47:20.525Z,949.07
2017-02-02T21:49:27.898Z,949.04
2017-02-02T21:51:40.337Z,949.07
2017-02-02T21:53:52.796Z,949.07
2017-02-02T21:56:05.171Z,949.03
2017-02-02T21:58:17.461Z,948.98
2017-02-02T22:00:29.911Z,948.97
2017-02-02T22:02:42.139Z,948.89
2017-02-02T22:04:54.426Z,948.85
2017-02-02T22:07:06.799Z,948.88
2017-02-02T22:09:14.095Z,948.89
2017-02-02T22:11:26.307Z,948.93
2017-02-02T22:13:33.548Z,948.92
2017-02-02T22:15:46.015Z,948.86
2017-02-02T22:17:58.296Z,948.85
2017-02-02T22:20:10.560Z,948.84
2017-02-02T22:22:22.782Z,948.85
2017-02-02T22:24:30.027Z,948.78
2017-02-02T22:26:42.355Z,948.77
2017-02-02T22:28:54.526Z,948.72
2017-02-02T22:31:06.913Z,948.76
2017-02-02T22:33:19.190Z,948.74
2017-02-02T22:35:31.402Z,948.66
2017-02-02T22:37:43.733Z,948.67
2017-02-02T22:39:56.116Z,948.63
2017-02-02T22:42:08.335Z,948.64
2017-02-02T22:44:20.552Z,948.65
2017-02-02T22:46:32.906Z,948.66
2017-02-02T22:48:45.181Z,948.66
2017-02-02T22:50:57.513Z,948.68
2017-02-02T22:53:09.782Z,948.66
2017-02-02T22:55:21.966Z,948.61
2017-02-02T22:57:34.313Z,948.59
2017-02-02T22:59:44.911Z,948.6
2017-02-02T23:01:57.102Z,948.59
2017-02-02T23:04:04.564Z,948.58
2017-02-02T23:06:16.786Z,948.53
2017-02-02T23:08:29.271Z,948.57
2017-02-02T23:10:41.947Z,948.52
2017-02-02T23:12:54.268Z,948.51
2017-02-02T23:15:07.245Z,948.44
2017-02-02T23:17:19.745Z,948.44
2017-02-02T23:19:32.006Z,948.48
2017-02-02T23:21:44.362Z,948.47
2017-02-02T23:23:58.299Z,948.46
2017-02-02T23:26:10.707Z,948.43
2017-02-02T23:28:23.113Z,948.34
2017-02-02T23:30:35.352Z,948.34
2017-02-02T23:32:47.654Z,948.3
2017-02-02T23:34:59.982Z,948.25
2017-02-02T23:37:07.244Z,948.24
2017-02-02T23:39:19.390Z,948.23
2017-02-02T23:41:31.695Z,948.27
2017-02-02T23:43:44.025Z,948.24
2017-02-02T23:45:56.191Z,948.27
2017-02-02T23:48:08.621Z,948.31
2017-02-02T23:50:20.865Z,948.33
2017-02-02T23:52:33.271Z,948.26
2017-02-02T23:54:45.542Z,948.27
2017-02-02T23:56:56.214Z,948.31
2017-02-02T23:59:03.485Z,948.26
